sensor_id;sensor_type;location;lat;lon;timestamp;P1;durP1;ratioP1;P2;durP2;ratioP2
58621;SDS011;44389;51.578;5.456;2023-07-13T00:01:30;0.10;;;0.10;;
58621;SDS011;44389;51.578;5.456;2023-07-13T00:03:56;0.10;;;0.10;;
58621;SDS011;44389;51.578;5.456;2023-07-13T00:06:21;0.10;;;0.10;;
58621;SDS011;44389;51.578;5.456;2023-07-13T00:08:47;0.10;;;0.10;;
58621;SDS011;44389;51.578;5.456;2023-07-13T00:11:14;0.10;;;0.10;;
58621;SDS011;44389;51.578;5.456;2023-07-13T00:13:40;0.10;;;0.10;;
58621;SDS011;44389;51.578;5.456;2023-07-13T00:16:07;0.10;;;0.10;;
58621;SDS011;44389;51.578;5.456;2023-07-13T00:18:34;0.10;;;0.10;;
58621;SDS011;44389;51.578;5.456;2023-07-13T00:20:59;0.10;;;0.10;;
58621;SDS011;44389;51.578;5.456;2023-07-13T00:23:39;0.10;;;0.10;;
58621;SDS011;44389;51.578;5.456;2023-07-13T00:26:07;0.10;;;0.10;;
58621;SDS011;44389;51.578;5.456;2023-07-13T00:28:34;0.10;;;0.10;;
58621;SDS011;44389;51.578;5.456;2023-07-13T00:31:00;0.13;;;0.13;;
58621;SDS011;44389;51.578;5.456;2023-07-13T00:33:29;0.10;;;0.10;;
58621;SDS011;44389;51.578;5.456;2023-07-13T00:35:55;0.10;;;0.10;;
58621;SDS011;44389;51.578;5.456;2023-07-13T00:38:21;0.03;;;0.03;;
58621;SDS011;44389;51.578;5.456;2023-07-13T00:40:47;0.10;;;0.10;;
58621;SDS011;44389;51.578;5.456;2023-07-13T00:43:14;0.10;;;0.10;;
58621;SDS011;44389;51.578;5.456;2023-07-13T00:48:11;0.10;;;0.10;;
58621;SDS011;44389;51.578;5.456;2023-07-13T00:50:37;0.10;;;0.10;;
58621;SDS011;44389;51.578;5.456;2023-07-13T00:53:04;0.00;;;0.00;;
58621;SDS011;44389;51.578;5.456;2023-07-13T00:55:29;0.00;;;0.00;;
58621;SDS011;44389;51.578;5.456;2023-07-13T00:57:55;0.10;;;0.10;;
58621;SDS011;44389;51.578;5.456;2023-07-13T01:00:21;0.03;;;0.03;;
58621;SDS011;44389;51.578;5.456;2023-07-13T01:02:48;0.10;;;0.10;;
58621;SDS011;44389;51.578;5.456;2023-07-13T01:05:18;0.10;;;0.10;;
58621;SDS011;44389;51.578;5.456;2023-07-13T01:07:45;0.10;;;0.10;;
58621;SDS011;44389;51.578;5.456;2023-07-13T01:10:14;0.10;;;0.10;;
58621;SDS011;44389;51.578;5.456;2023-07-13T01:12:40;0.00;;;0.00;;
58621;SDS011;44389;51.578;5.456;2023-07-13T01:15:05;0.10;;;0.10;;
58621;SDS011;44389;51.578;5.456;2023-07-13T01:18:07;0.10;;;0.10;;
58621;SDS011;44389;51.578;5.456;2023-07-13T01:20:35;0.00;;;0.00;;
58621;SDS011;44389;51.578;5.456;2023-07-13T01:23:03;0.10;;;0.10;;
58621;SDS011;44389;51.578;5.456;2023-07-13T01:25:31;0.10;;;0.10;;
58621;SDS011;44389;51.578;5.456;2023-07-13T01:27:56;0.10;;;0.10;;
58621;SDS011;44389;51.578;5.456;2023-07-13T01:30:22;0.10;;;0.10;;
58621;SDS011;44389;51.578;5.456;2023-07-13T01:32:47;0.10;;;0.10;;
58621;SDS011;44389;51.578;5.456;2023-07-13T01:35:13;0.03;;;0.03;;
58621;SDS011;44389;51.578;5.456;2023-07-13T01:37:38;0.10;;;0.10;;
58621;SDS011;44389;51.578;5.456;2023-07-13T01:40:04;0.00;;;0.00;;
58621;SDS011;44389;51.578;5.456;2023-07-13T01:42:30;0.10;;;0.10;;
58621;SDS011;44389;51.578;5.456;2023-07-13T01:44:55;0.10;;;0.10;;
58621;SDS011;44389;51.578;5.456;2023-07-13T01:47:22;0.10;;;0.10;;
58621;SDS011;44389;51.578;5.456;2023-07-13T01:52:15;0.10;;;0.10;;
58621;SDS011;44389;51.578;5.456;2023-07-13T01:54:40;0.10;;;0.10;;
58621;SDS011;44389;51.578;5.456;2023-07-13T01:57:05;0.00;;;0.00;;
58621;SDS011;44389;51.578;5.456;2023-07-13T01:59:31;0.10;;;0.10;;
58621;SDS011;44389;51.578;5.456;2023-07-13T02:01:58;0.10;;;0.10;;
58621;SDS011;44389;51.578;5.456;2023-07-13T02:04:23;0.10;;;0.10;;
58621;SDS011;44389;51.578;5.456;2023-07-13T02:06:49;0.03;;;0.03;;
58621;SDS011;44389;51.578;5.456;2023-07-13T02:09:14;0.03;;;0.03;;
58621;SDS011;44389;51.578;5.456;2023-07-13T02:11:40;0.10;;;0.10;;
58621;SDS011;44389;51.578;5.456;2023-07-13T02:14:05;0.10;;;0.10;;
58621;SDS011;44389;51.578;5.456;2023-07-13T02:16:30;0.10;;;0.10;;
58621;SDS011;44389;51.578;5.456;2023-07-13T02:18:56;0.10;;;0.10;;
58621;SDS011;44389;51.578;5.456;2023-07-13T02:21:22;0.10;;;0.10;;
58621;SDS011;44389;51.578;5.456;2023-07-13T02:23:50;0.10;;;0.10;;
58621;SDS011;44389;51.578;5.456;2023-07-13T02:26:17;0.10;;;0.10;;
58621;SDS011;44389;51.578;5.456;2023-07-13T02:28:42;0.10;;;0.10;;
58621;SDS011;44389;51.578;5.456;2023-07-13T02:31:08;0.10;;;0.10;;
58621;SDS011;44389;51.578;5.456;2023-07-13T02:33:36;0.10;;;0.10;;
58621;SDS011;44389;51.578;5.456;2023-07-13T02:36:01;0.10;;;0.10;;
58621;SDS011;44389;51.578;5.456;2023-07-13T02:38:27;0.03;;;0.03;;
58621;SDS011;44389;51.578;5.456;2023-07-13T02:40:52;0.10;;;0.10;;
58621;SDS011;44389;51.578;5.456;2023-07-13T02:43:18;0.10;;;0.10;;
58621;SDS011;44389;51.578;5.456;2023-07-13T02:45:44;0.10;;;0.10;;
58621;SDS011;44389;51.578;5.456;2023-07-13T02:48:10;0.00;;;0.00;;
58621;SDS011;44389;51.578;5.456;2023-07-13T02:50:35;0.10;;;0.10;;
58621;SDS011;44389;51.578;5.456;2023-07-13T02:53:00;0.10;;;0.10;;
58621;SDS011;44389;51.578;5.456;2023-07-13T02:55:26;0.10;;;0.10;;
58621;SDS011;44389;51.578;5.456;2023-07-13T02:57:51;0.10;;;0.10;;
58621;SDS011;44389;51.578;5.456;2023-07-13T03:00:17;0.10;;;0.10;;
58621;SDS011;44389;51.578;5.456;2023-07-13T03:02:42;0.10;;;0.10;;
58621;SDS011;44389;51.578;5.456;2023-07-13T03:05:08;0.10;;;0.10;;
58621;SDS011;44389;51.578;5.456;2023-07-13T03:07:35;0.10;;;0.10;;
58621;SDS011;44389;51.578;5.456;2023-07-13T03:10:01;0.00;;;0.00;;
58621;SDS011;44389;51.578;5.456;2023-07-13T03:12:27;0.10;;;0.10;;
58621;SDS011;44389;51.578;5.456;2023-07-13T03:14:52;0.10;;;0.10;;
58621;SDS011;44389;51.578;5.456;2023-07-13T03:17:17;0.10;;;0.10;;
58621;SDS011;44389;51.578;5.456;2023-07-13T03:19:43;0.10;;;0.10;;
58621;SDS011;44389;51.578;5.456;2023-07-13T03:22:08;0.10;;;0.10;;
58621;SDS011;44389;51.578;5.456;2023-07-13T03:24:34;0.10;;;0.10;;
58621;SDS011;44389;51.578;5.456;2023-07-13T03:27:01;0.00;;;0.00;;
58621;SDS011;44389;51.578;5.456;2023-07-13T03:31:53;0.10;;;0.10;;
58621;SDS011;44389;51.578;5.456;2023-07-13T03:34:19;0.10;;;0.10;;
58621;SDS011;44389;51.578;5.456;2023-07-13T03:36:44;0.10;;;0.10;;
58621;SDS011;44389;51.578;5.456;2023-07-13T03:39:10;0.10;;;0.10;;
58621;SDS011;44389;51.578;5.456;2023-07-13T03:41:35;0.10;;;0.10;;
58621;SDS011;44389;51.578;5.456;2023-07-13T03:44:01;0.00;;;0.00;;
58621;SDS011;44389;51.578;5.456;2023-07-13T03:46:26;0.10;;;0.10;;
58621;SDS011;44389;51.578;5.456;2023-07-13T03:48:52;0.10;;;0.10;;
58621;SDS011;44389;51.578;5.456;2023-07-13T03:51:18;0.13;;;0.13;;
58621;SDS011;44389;51.578;5.456;2023-07-13T03:53:44;0.10;;;0.10;;
58621;SDS011;44389;51.578;5.456;2023-07-13T03:56:11;0.10;;;0.10;;
58621;SDS011;44389;51.578;5.456;2023-07-13T03:58:40;0.10;;;0.10;;
58621;SDS011;44389;51.578;5.456;2023-07-13T04:01:07;0.10;;;0.10;;
58621;SDS011;44389;51.578;5.456;2023-07-13T04:03:34;0.08;;;0.08;;
58621;SDS011;44389;51.578;5.456;2023-07-13T04:06:02;0.10;;;0.10;;
58621;SDS011;44389;51.578;5.456;2023-07-13T04:08:29;0.10;;;0.10;;
58621;SDS011;44389;51.578;5.456;2023-07-13T04:10:56;0.10;;;0.10;;
58621;SDS011;44389;51.578;5.456;2023-07-13T04:13:23;0.10;;;0.10;;
58621;SDS011;44389;51.578;5.456;2023-07-13T04:15:49;0.10;;;0.10;;
58621;SDS011;44389;51.578;5.456;2023-07-13T04:18:15;0.10;;;0.10;;
58621;SDS011;44389;51.578;5.456;2023-07-13T04:20:40;0.10;;;0.10;;
58621;SDS011;44389;51.578;5.456;2023-07-13T04:23:06;0.10;;;0.10;;
58621;SDS011;44389;51.578;5.456;2023-07-13T04:25:31;0.10;;;0.10;;
58621;SDS011;44389;51.578;5.456;2023-07-13T04:27:57;0.20;;;0.20;;
58621;SDS011;44389;51.578;5.456;2023-07-13T04:30:22;0.20;;;0.20;;
58621;SDS011;44389;51.578;5.456;2023-07-13T04:32:49;0.10;;;0.10;;
58621;SDS011;44389;51.578;5.456;2023-07-13T04:35:16;0.20;;;0.20;;
58621;SDS011;44389;51.578;5.456;2023-07-13T04:37:42;0.20;;;0.20;;
58621;SDS011;44389;51.578;5.456;2023-07-13T04:40:08;0.13;;;0.13;;
58621;SDS011;44389;51.578;5.456;2023-07-13T04:42:36;0.10;;;0.10;;
58621;SDS011;44389;51.578;5.456;2023-07-13T04:45:02;0.10;;;0.10;;
58621;SDS011;44389;51.578;5.456;2023-07-13T04:47:29;0.20;;;0.20;;
58621;SDS011;44389;51.578;5.456;2023-07-13T04:49:55;0.10;;;0.10;;
58621;SDS011;44389;51.578;5.456;2023-07-13T04:52:21;0.10;;;0.10;;
58621;SDS011;44389;51.578;5.456;2023-07-13T04:54:50;0.10;;;0.10;;
58621;SDS011;44389;51.578;5.456;2023-07-13T04:57:15;0.10;;;0.10;;
58621;SDS011;44389;51.578;5.456;2023-07-13T04:59:41;0.10;;;0.10;;
58621;SDS011;44389;51.578;5.456;2023-07-13T05:02:06;0.10;;;0.10;;
58621;SDS011;44389;51.578;5.456;2023-07-13T05:04:32;0.20;;;0.20;;
58621;SDS011;44389;51.578;5.456;2023-07-13T05:06:58;0.20;;;0.20;;
58621;SDS011;44389;51.578;5.456;2023-07-13T05:09:24;0.10;;;0.10;;
58621;SDS011;44389;51.578;5.456;2023-07-13T05:11:50;0.10;;;0.10;;
58621;SDS011;44389;51.578;5.456;2023-07-13T05:14:15;0.10;;;0.10;;
58621;SDS011;44389;51.578;5.456;2023-07-13T05:16:41;0.10;;;0.10;;
58621;SDS011;44389;51.578;5.456;2023-07-13T05:19:07;0.10;;;0.10;;
58621;SDS011;44389;51.578;5.456;2023-07-13T05:21:33;0.10;;;0.10;;
58621;SDS011;44389;51.578;5.456;2023-07-13T05:23:58;0.15;;;0.15;;
58621;SDS011;44389;51.578;5.456;2023-07-13T05:26:23;0.10;;;0.10;;
58621;SDS011;44389;51.578;5.456;2023-07-13T05:28:49;0.10;;;0.10;;
58621;SDS011;44389;51.578;5.456;2023-07-13T05:31:14;0.10;;;0.10;;
58621;SDS011;44389;51.578;5.456;2023-07-13T05:33:40;0.10;;;0.10;;
58621;SDS011;44389;51.578;5.456;2023-07-13T05:36:05;0.10;;;0.10;;
58621;SDS011;44389;51.578;5.456;2023-07-13T05:38:32;0.20;;;0.20;;
58621;SDS011;44389;51.578;5.456;2023-07-13T05:40:57;0.20;;;0.20;;
58621;SDS011;44389;51.578;5.456;2023-07-13T05:43:23;0.20;;;0.20;;
58621;SDS011;44389;51.578;5.456;2023-07-13T05:45:49;0.20;;;0.20;;
58621;SDS011;44389;51.578;5.456;2023-07-13T05:48:17;0.10;;;0.10;;
58621;SDS011;44389;51.578;5.456;2023-07-13T05:50:42;0.10;;;0.10;;
58621;SDS011;44389;51.578;5.456;2023-07-13T05:53:08;0.10;;;0.10;;
58621;SDS011;44389;51.578;5.456;2023-07-13T05:55:33;0.10;;;0.10;;
58621;SDS011;44389;51.578;5.456;2023-07-13T05:57:59;0.10;;;0.10;;
58621;SDS011;44389;51.578;5.456;2023-07-13T06:00:25;0.10;;;0.10;;
58621;SDS011;44389;51.578;5.456;2023-07-13T06:02:51;0.10;;;0.10;;
58621;SDS011;44389;51.578;5.456;2023-07-13T06:05:16;0.10;;;0.10;;
58621;SDS011;44389;51.578;5.456;2023-07-13T06:07:42;0.10;;;0.10;;
58621;SDS011;44389;51.578;5.456;2023-07-13T06:10:07;0.10;;;0.10;;
58621;SDS011;44389;51.578;5.456;2023-07-13T06:12:33;0.10;;;0.10;;
58621;SDS011;44389;51.578;5.456;2023-07-13T06:14:59;0.20;;;0.20;;
58621;SDS011;44389;51.578;5.456;2023-07-13T06:17:24;0.10;;;0.10;;
58621;SDS011;44389;51.578;5.456;2023-07-13T06:19:50;0.10;;;0.10;;
58621;SDS011;44389;51.578;5.456;2023-07-13T06:22:15;0.10;;;0.10;;
58621;SDS011;44389;51.578;5.456;2023-07-13T06:24:40;0.10;;;0.10;;
58621;SDS011;44389;51.578;5.456;2023-07-13T06:27:06;0.10;;;0.10;;
58621;SDS011;44389;51.578;5.456;2023-07-13T06:29:31;0.10;;;0.10;;
58621;SDS011;44389;51.578;5.456;2023-07-13T06:31:56;0.10;;;0.10;;
58621;SDS011;44389;51.578;5.456;2023-07-13T06:34:22;0.10;;;0.10;;
58621;SDS011;44389;51.578;5.456;2023-07-13T06:36:50;0.10;;;0.10;;
58621;SDS011;44389;51.578;5.456;2023-07-13T06:39:16;0.20;;;0.20;;
58621;SDS011;44389;51.578;5.456;2023-07-13T06:41:41;0.10;;;0.10;;
58621;SDS011;44389;51.578;5.456;2023-07-13T06:44:07;0.10;;;0.10;;
58621;SDS011;44389;51.578;5.456;2023-07-13T06:46:32;0.10;;;0.10;;
58621;SDS011;44389;51.578;5.456;2023-07-13T06:48:58;0.10;;;0.10;;
58621;SDS011;44389;51.578;5.456;2023-07-13T06:51:26;0.08;;;0.08;;
58621;SDS011;44389;51.578;5.456;2023-07-13T06:53:51;0.10;;;0.10;;
58621;SDS011;44389;51.578;5.456;2023-07-13T06:56:17;0.10;;;0.10;;
58621;SDS011;44389;51.578;5.456;2023-07-13T06:58:42;0.10;;;0.10;;
58621;SDS011;44389;51.578;5.456;2023-07-13T07:01:08;0.05;;;0.05;;
58621;SDS011;44389;51.578;5.456;2023-07-13T07:03:33;0.10;;;0.10;;
58621;SDS011;44389;51.578;5.456;2023-07-13T07:06:19;0.10;;;0.10;;
58621;SDS011;44389;51.578;5.456;2023-07-13T07:08:48;0.10;;;0.10;;
58621;SDS011;44389;51.578;5.456;2023-07-13T07:11:16;0.10;;;0.10;;
58621;SDS011;44389;51.578;5.456;2023-07-13T07:13:43;0.08;;;0.08;;
58621;SDS011;44389;51.578;5.456;2023-07-13T07:16:09;0.10;;;0.10;;
58621;SDS011;44389;51.578;5.456;2023-07-13T07:18:34;0.10;;;0.10;;
58621;SDS011;44389;51.578;5.456;2023-07-13T07:21:00;0.10;;;0.10;;
58621;SDS011;44389;51.578;5.456;2023-07-13T07:23:26;0.00;;;0.00;;
58621;SDS011;44389;51.578;5.456;2023-07-13T07:25:51;0.00;;;0.00;;
58621;SDS011;44389;51.578;5.456;2023-07-13T07:28:17;0.00;;;0.00;;
58621;SDS011;44389;51.578;5.456;2023-07-13T07:30:45;0.10;;;0.10;;
58621;SDS011;44389;51.578;5.456;2023-07-13T07:33:11;0.10;;;0.10;;
58621;SDS011;44389;51.578;5.456;2023-07-13T07:35:37;0.10;;;0.10;;
58621;SDS011;44389;51.578;5.456;2023-07-13T07:38:03;0.00;;;0.00;;
58621;SDS011;44389;51.578;5.456;2023-07-13T07:40:28;0.03;;;0.03;;
58621;SDS011;44389;51.578;5.456;2023-07-13T07:42:54;0.00;;;0.00;;
58621;SDS011;44389;51.578;5.456;2023-07-13T07:45:20;0.10;;;0.10;;
58621;SDS011;44389;51.578;5.456;2023-07-13T07:47:46;0.10;;;0.10;;
58621;SDS011;44389;51.578;5.456;2023-07-13T07:50:11;0.10;;;0.10;;
58621;SDS011;44389;51.578;5.456;2023-07-13T07:52:37;0.08;;;0.08;;
58621;SDS011;44389;51.578;5.456;2023-07-13T07:55:04;0.10;;;0.10;;
58621;SDS011;44389;51.578;5.456;2023-07-13T07:57:31;0.00;;;0.00;;
58621;SDS011;44389;51.578;5.456;2023-07-13T07:59:56;0.00;;;0.00;;
58621;SDS011;44389;51.578;5.456;2023-07-13T08:02:21;0.00;;;0.00;;
58621;SDS011;44389;51.578;5.456;2023-07-13T08:04:47;0.10;;;0.10;;
58621;SDS011;44389;51.578;5.456;2023-07-13T08:07:12;0.00;;;0.00;;
58621;SDS011;44389;51.578;5.456;2023-07-13T08:09:38;0.00;;;0.00;;
58621;SDS011;44389;51.578;5.456;2023-07-13T08:12:03;0.00;;;0.00;;
58621;SDS011;44389;51.578;5.456;2023-07-13T08:14:29;0.00;;;0.00;;
58621;SDS011;44389;51.578;5.456;2023-07-13T08:16:54;0.10;;;0.10;;
58621;SDS011;44389;51.578;5.456;2023-07-13T08:19:20;0.03;;;0.03;;
58621;SDS011;44389;51.578;5.456;2023-07-13T08:21:45;0.10;;;0.10;;
58621;SDS011;44389;51.578;5.456;2023-07-13T08:26:39;0.10;;;0.10;;
58621;SDS011;44389;51.578;5.456;2023-07-13T08:29:05;0.00;;;0.00;;
58621;SDS011;44389;51.578;5.456;2023-07-13T08:31:30;0.00;;;0.00;;
58621;SDS011;44389;51.578;5.456;2023-07-13T08:33:56;0.00;;;0.00;;
58621;SDS011;44389;51.578;5.456;2023-07-13T08:36:21;0.00;;;0.00;;
58621;SDS011;44389;51.578;5.456;2023-07-13T08:38:46;0.00;;;0.00;;
58621;SDS011;44389;51.578;5.456;2023-07-13T08:41:14;0.00;;;0.00;;
58621;SDS011;44389;51.578;5.456;2023-07-13T08:43:42;0.10;;;0.10;;
58621;SDS011;44389;51.578;5.456;2023-07-13T08:46:19;0.00;;;0.00;;
58621;SDS011;44389;51.578;5.456;2023-07-13T08:48:54;0.00;;;0.00;;
58621;SDS011;44389;51.578;5.456;2023-07-13T08:53:54;0.00;;;0.00;;
58621;SDS011;44389;51.578;5.456;2023-07-13T08:56:25;0.00;;;0.00;;
58621;SDS011;44389;51.578;5.456;2023-07-13T08:58:54;0.00;;;0.00;;
58621;SDS011;44389;51.578;5.456;2023-07-13T09:01:24;0.00;;;0.00;;
58621;SDS011;44389;51.578;5.456;2023-07-13T09:04:03;0.00;;;0.00;;
58621;SDS011;44389;51.578;5.456;2023-07-13T09:06:47;0.00;;;0.00;;
58621;SDS011;44389;51.578;5.456;2023-07-13T09:09:20;0.00;;;0.00;;
58621;SDS011;44389;51.578;5.456;2023-07-13T09:12:14;0.00;;;0.00;;
58621;SDS011;44389;51.578;5.456;2023-07-13T09:14:51;0.00;;;0.00;;
58621;SDS011;44389;51.578;5.456;2023-07-13T09:17:27;0.00;;;0.00;;
58621;SDS011;44389;51.578;5.456;2023-07-13T09:20:05;0.00;;;0.00;;
58621;SDS011;44389;51.578;5.456;2023-07-13T09:22:45;0.00;;;0.00;;
58621;SDS011;44389;51.578;5.456;2023-07-13T09:27:55;0.00;;;0.00;;
58621;SDS011;44389;51.578;5.456;2023-07-13T09:30:37;0.00;;;0.00;;
58621;SDS011;44389;51.578;5.456;2023-07-13T09:33:09;0.00;;;0.00;;
58621;SDS011;44389;51.578;5.456;2023-07-13T09:35:34;0.00;;;0.00;;
58621;SDS011;44389;51.578;5.456;2023-07-13T09:38:11;0.00;;;0.00;;
58621;SDS011;44389;51.578;5.456;2023-07-13T09:46:31;0.10;;;0.10;;
58621;SDS011;44389;51.578;5.456;2023-07-13T09:48:56;0.00;;;0.00;;
58621;SDS011;44389;51.578;5.456;2023-07-13T09:51:22;0.00;;;0.00;;
58621;SDS011;44389;51.578;5.456;2023-07-13T09:53:48;0.00;;;0.00;;
58621;SDS011;44389;51.578;5.456;2023-07-13T09:56:21;0.00;;;0.00;;
58621;SDS011;44389;51.578;5.456;2023-07-13T09:58:57;0.00;;;0.00;;
58621;SDS011;44389;51.578;5.456;2023-07-13T10:01:36;0.00;;;0.00;;
58621;SDS011;44389;51.578;5.456;2023-07-13T10:04:09;0.00;;;0.00;;
58621;SDS011;44389;51.578;5.456;2023-07-13T10:06:38;0.00;;;0.00;;
58621;SDS011;44389;51.578;5.456;2023-07-13T10:09:08;0.00;;;0.00;;
58621;SDS011;44389;51.578;5.456;2023-07-13T10:11:36;0.00;;;0.00;;
58621;SDS011;44389;51.578;5.456;2023-07-13T10:14:12;0.00;;;0.00;;
58621;SDS011;44389;51.578;5.456;2023-07-13T10:16:48;0.00;;;0.00;;
58621;SDS011;44389;51.578;5.456;2023-07-13T10:19:22;0.00;;;0.00;;
58621;SDS011;44389;51.578;5.456;2023-07-13T10:21:58;0.00;;;0.00;;
58621;SDS011;44389;51.578;5.456;2023-07-13T10:24:26;0.00;;;0.00;;
58621;SDS011;44389;51.578;5.456;2023-07-13T10:27:00;0.00;;;0.00;;
58621;SDS011;44389;51.578;5.456;2023-07-13T10:29:32;0.00;;;0.00;;
58621;SDS011;44389;51.578;5.456;2023-07-13T10:32:02;0.00;;;0.00;;
58621;SDS011;44389;51.578;5.456;2023-07-13T10:34:34;0.00;;;0.00;;
58621;SDS011;44389;51.578;5.456;2023-07-13T10:37:00;0.00;;;0.00;;
58621;SDS011;44389;51.578;5.456;2023-07-13T10:39:27;0.00;;;0.00;;
58621;SDS011;44389;51.578;5.456;2023-07-13T10:41:55;0.00;;;0.00;;
58621;SDS011;44389;51.578;5.456;2023-07-13T10:44:26;0.00;;;0.00;;
58621;SDS011;44389;51.578;5.456;2023-07-13T10:46:55;0.00;;;0.00;;
58621;SDS011;44389;51.578;5.456;2023-07-13T10:49:23;0.00;;;0.00;;
58621;SDS011;44389;51.578;5.456;2023-07-13T10:51:51;0.00;;;0.00;;
58621;SDS011;44389;51.578;5.456;2023-07-13T10:54:21;0.00;;;0.00;;
58621;SDS011;44389;51.578;5.456;2023-07-13T10:59:32;0.00;;;0.00;;
58621;SDS011;44389;51.578;5.456;2023-07-13T11:01:58;0.00;;;0.00;;
58621;SDS011;44389;51.578;5.456;2023-07-13T11:04:43;0.00;;;0.00;;
58621;SDS011;44389;51.578;5.456;2023-07-13T11:07:21;0.00;;;0.00;;
58621;SDS011;44389;51.578;5.456;2023-07-13T11:10:00;0.00;;;0.00;;
58621;SDS011;44389;51.578;5.456;2023-07-13T11:15:13;0.00;;;0.00;;
58621;SDS011;44389;51.578;5.456;2023-07-13T11:20:32;0.00;;;0.00;;
58621;SDS011;44389;51.578;5.456;2023-07-13T11:25:37;0.00;;;0.00;;
58621;SDS011;44389;51.578;5.456;2023-07-13T11:30:39;0.00;;;0.00;;
58621;SDS011;44389;51.578;5.456;2023-07-13T11:38:40;0.00;;;0.00;;
58621;SDS011;44389;51.578;5.456;2023-07-13T11:43:40;0.00;;;0.00;;
58621;SDS011;44389;51.578;5.456;2023-07-13T11:46:14;0.00;;;0.00;;
58621;SDS011;44389;51.578;5.456;2023-07-13T11:48:45;0.00;;;0.00;;
58621;SDS011;44389;51.578;5.456;2023-07-13T11:51:26;0.00;;;0.00;;
58621;SDS011;44389;51.578;5.456;2023-07-13T11:53:53;0.00;;;0.00;;
58621;SDS011;44389;51.578;5.456;2023-07-13T11:56:20;0.00;;;0.00;;
58621;SDS011;44389;51.578;5.456;2023-07-13T11:58:50;0.00;;;0.00;;
58621;SDS011;44389;51.578;5.456;2023-07-13T12:01:22;0.00;;;0.00;;
58621;SDS011;44389;51.578;5.456;2023-07-13T12:03:58;0.00;;;0.00;;
58621;SDS011;44389;51.578;5.456;2023-07-13T12:06:30;0.00;;;0.00;;
58621;SDS011;44389;51.578;5.456;2023-07-13T12:08:58;0.00;;;0.00;;
58621;SDS011;44389;51.578;5.456;2023-07-13T12:11:28;0.00;;;0.00;;
58621;SDS011;44389;51.578;5.456;2023-07-13T12:13:55;0.00;;;0.00;;
58621;SDS011;44389;51.578;5.456;2023-07-13T12:18:52;0.00;;;0.00;;
58621;SDS011;44389;51.578;5.456;2023-07-13T12:21:19;0.00;;;0.00;;
58621;SDS011;44389;51.578;5.456;2023-07-13T12:23:47;0.00;;;0.00;;
58621;SDS011;44389;51.578;5.456;2023-07-13T12:33:58;0.00;;;0.00;;
58621;SDS011;44389;51.578;5.456;2023-07-13T12:36:24;0.00;;;0.00;;
58621;SDS011;44389;51.578;5.456;2023-07-13T12:38:50;0.00;;;0.00;;
58621;SDS011;44389;51.578;5.456;2023-07-13T12:41:16;0.00;;;0.00;;
58621;SDS011;44389;51.578;5.456;2023-07-13T12:43:42;0.00;;;0.00;;
58621;SDS011;44389;51.578;5.456;2023-07-13T12:46:20;0.00;;;0.00;;
58621;SDS011;44389;51.578;5.456;2023-07-13T12:48:50;0.00;;;0.00;;
58621;SDS011;44389;51.578;5.456;2023-07-13T12:51:20;0.00;;;0.00;;
58621;SDS011;44389;51.578;5.456;2023-07-13T12:53:48;0.00;;;0.00;;
58621;SDS011;44389;51.578;5.456;2023-07-13T12:56:19;0.00;;;0.00;;
58621;SDS011;44389;51.578;5.456;2023-07-13T12:58:48;0.00;;;0.00;;
58621;SDS011;44389;51.578;5.456;2023-07-13T13:01:19;0.00;;;0.00;;
58621;SDS011;44389;51.578;5.456;2023-07-13T13:03:48;0.00;;;0.00;;
58621;SDS011;44389;51.578;5.456;2023-07-13T13:06:21;0.00;;;0.00;;
58621;SDS011;44389;51.578;5.456;2023-07-13T13:08:55;0.00;;;0.00;;
58621;SDS011;44389;51.578;5.456;2023-07-13T13:11:23;0.00;;;0.00;;
58621;SDS011;44389;51.578;5.456;2023-07-13T13:13:51;0.10;;;0.00;;
58621;SDS011;44389;51.578;5.456;2023-07-13T13:17:02;0.00;;;0.00;;
58621;SDS011;44389;51.578;5.456;2023-07-13T13:19:13;0.00;;;0.00;;
58621;SDS011;44389;51.578;5.456;2023-07-13T13:24:10;0.00;;;0.00;;
58621;SDS011;44389;51.578;5.456;2023-07-13T13:26:37;0.00;;;0.00;;
58621;SDS011;44389;51.578;5.456;2023-07-13T13:29:08;0.00;;;0.00;;
58621;SDS011;44389;51.578;5.456;2023-07-13T13:31:38;0.00;;;0.00;;
58621;SDS011;44389;51.578;5.456;2023-07-13T13:34:04;0.00;;;0.00;;
58621;SDS011;44389;51.578;5.456;2023-07-13T13:36:34;0.00;;;0.00;;
58621;SDS011;44389;51.578;5.456;2023-07-13T13:39:00;0.00;;;0.00;;
58621;SDS011;44389;51.578;5.456;2023-07-13T13:41:27;0.00;;;0.00;;
58621;SDS011;44389;51.578;5.456;2023-07-13T13:43:52;0.00;;;0.00;;
58621;SDS011;44389;51.578;5.456;2023-07-13T13:46:22;0.00;;;0.00;;
58621;SDS011;44389;51.578;5.456;2023-07-13T13:48:54;0.00;;;0.00;;
58621;SDS011;44389;51.578;5.456;2023-07-13T13:51:22;0.00;;;0.00;;
58621;SDS011;44389;51.578;5.456;2023-07-13T13:53:48;0.00;;;0.00;;
58621;SDS011;44389;51.578;5.456;2023-07-13T13:56:14;0.00;;;0.00;;
58621;SDS011;44389;51.578;5.456;2023-07-13T13:58:42;0.00;;;0.00;;
58621;SDS011;44389;51.578;5.456;2023-07-13T14:01:16;0.00;;;0.00;;
58621;SDS011;44389;51.578;5.456;2023-07-13T14:03:47;0.00;;;0.00;;
58621;SDS011;44389;51.578;5.456;2023-07-13T14:06:14;0.00;;;0.00;;
58621;SDS011;44389;51.578;5.456;2023-07-13T14:08:40;0.00;;;0.00;;
58621;SDS011;44389;51.578;5.456;2023-07-13T14:11:07;0.00;;;0.00;;
58621;SDS011;44389;51.578;5.456;2023-07-13T14:13:41;0.00;;;0.00;;
58621;SDS011;44389;51.578;5.456;2023-07-13T14:16:12;0.00;;;0.00;;
58621;SDS011;44389;51.578;5.456;2023-07-13T14:18:43;0.00;;;0.00;;
58621;SDS011;44389;51.578;5.456;2023-07-13T14:21:13;0.00;;;0.00;;
58621;SDS011;44389;51.578;5.456;2023-07-13T14:23:40;0.00;;;0.00;;
58621;SDS011;44389;51.578;5.456;2023-07-13T14:26:10;0.00;;;0.00;;
58621;SDS011;44389;51.578;5.456;2023-07-13T14:28:38;0.00;;;0.00;;
58621;SDS011;44389;51.578;5.456;2023-07-13T14:31:08;0.00;;;0.00;;
58621;SDS011;44389;51.578;5.456;2023-07-13T14:33:34;0.00;;;0.00;;
58621;SDS011;44389;51.578;5.456;2023-07-13T14:35:59;0.00;;;0.00;;
58621;SDS011;44389;51.578;5.456;2023-07-13T14:38:24;0.00;;;0.00;;
58621;SDS011;44389;51.578;5.456;2023-07-13T14:40:50;0.00;;;0.00;;
58621;SDS011;44389;51.578;5.456;2023-07-13T14:43:16;0.00;;;0.00;;
58621;SDS011;44389;51.578;5.456;2023-07-13T14:45:44;0.00;;;0.00;;
58621;SDS011;44389;51.578;5.456;2023-07-13T14:48:21;0.00;;;0.00;;
58621;SDS011;44389;51.578;5.456;2023-07-13T14:50:58;0.00;;;0.00;;
58621;SDS011;44389;51.578;5.456;2023-07-13T14:53:25;0.00;;;0.00;;
58621;SDS011;44389;51.578;5.456;2023-07-13T14:55:52;0.00;;;0.00;;
58621;SDS011;44389;51.578;5.456;2023-07-13T14:58:18;0.00;;;0.00;;
58621;SDS011;44389;51.578;5.456;2023-07-13T15:00:43;0.00;;;0.00;;
58621;SDS011;44389;51.578;5.456;2023-07-13T15:03:17;0.00;;;0.00;;
58621;SDS011;44389;51.578;5.456;2023-07-13T15:05:48;0.00;;;0.00;;
58621;SDS011;44389;51.578;5.456;2023-07-13T15:08:14;0.00;;;0.00;;
58621;SDS011;44389;51.578;5.456;2023-07-13T15:10:40;0.00;;;0.00;;
58621;SDS011;44389;51.578;5.456;2023-07-13T15:13:19;0.00;;;0.00;;
58621;SDS011;44389;51.578;5.456;2023-07-13T15:15:47;0.00;;;0.00;;
58621;SDS011;44389;51.578;5.456;2023-07-13T15:18:14;0.00;;;0.00;;
58621;SDS011;44389;51.578;5.456;2023-07-13T15:20:42;0.00;;;0.00;;
58621;SDS011;44389;51.578;5.456;2023-07-13T15:23:10;0.00;;;0.00;;
58621;SDS011;44389;51.578;5.456;2023-07-13T15:25:36;0.00;;;0.00;;
58621;SDS011;44389;51.578;5.456;2023-07-13T15:28:01;0.00;;;0.00;;
58621;SDS011;44389;51.578;5.456;2023-07-13T15:30:30;0.00;;;0.00;;
58621;SDS011;44389;51.578;5.456;2023-07-13T15:33:01;0.00;;;0.00;;
58621;SDS011;44389;51.578;5.456;2023-07-13T15:35:36;0.00;;;0.00;;
58621;SDS011;44389;51.578;5.456;2023-07-13T15:38:01;0.00;;;0.00;;
58621;SDS011;44389;51.578;5.456;2023-07-13T15:40:34;0.00;;;0.00;;
58621;SDS011;44389;51.578;5.456;2023-07-13T15:43:00;0.00;;;0.00;;
58621;SDS011;44389;51.578;5.456;2023-07-13T15:45:25;0.00;;;0.00;;
58621;SDS011;44389;51.578;5.456;2023-07-13T15:47:51;0.00;;;0.00;;